createdAt,value
2023-01-17T00:01:54.487Z,95107.59
2023-01-17T00:04:41.036Z,95118.53
2023-01-17T00:07:29.902Z,95117.47
2023-01-17T00:09:58.421Z,95105.38
2023-01-17T00:12:28.681Z,95114.16
2023-01-17T00:15:00.476Z,95120.41
2023-01-17T00:17:30.260Z,95121.53
2023-01-17T00:20:18.650Z,95109.78
2023-01-17T00:23:05.399Z,95112.19
2023-01-17T00:25:53.621Z,95117.47
2023-01-17T00:28:20.691Z,95112.59
2023-01-17T00:30:49.393Z,95110.56
2023-01-17T00:33:16.943Z,95114.06
2023-01-17T00:35:44.192Z,95113.22
2023-01-17T00:38:12.899Z,95125.81
2023-01-17T00:40:41.730Z,95126.75
2023-01-17T00:43:28.463Z,95127.28
2023-01-17T00:46:16.032Z,95155.19
2023-01-17T00:49:01.928Z,95134.63
2023-01-17T00:51:48.960Z,95139.44
2023-01-17T00:54:34.883Z,95146.38
2023-01-17T00:57:21.688Z,95152.13
2023-01-17T01:00:07.360Z,95158.44
2023-01-17T01:02:55.294Z,95168.31
2023-01-17T01:05:41.747Z,95164.13
2023-01-17T01:08:39.845Z,95182.72
2023-01-17T01:11:27.879Z,95186.25
2023-01-17T01:14:14.799Z,95193.13
2023-01-17T01:17:00.649Z,95201.94
2023-01-17T01:19:47.764Z,95186.25
2023-01-17T01:22:33.653Z,95206.00
2023-01-17T01:25:19.441Z,95203.16
2023-01-17T01:28:05.097Z,95210.31
2023-01-17T01:30:50.886Z,95216.63
2023-01-17T01:33:21.174Z,95209.91
2023-01-17T01:35:54.108Z,95212.50
2023-01-17T01:38:24.430Z,95211.31
2023-01-17T01:40:55.689Z,95220.44
2023-01-17T01:43:44.128Z,95206.00
2023-01-17T01:46:15.533Z,95213.16
2023-01-17T01:48:48.679Z,95210.50
2023-01-17T01:51:23.711Z,95202.44
2023-01-17T01:53:55.957Z,95202.34
2023-01-17T01:56:25.187Z,95228.13
2023-01-17T01:58:55.391Z,95213.47
2023-01-17T02:01:25.484Z,95210.00
2023-01-17T02:03:53.835Z,95220.09
2023-01-17T02:06:33.571Z,95230.00
2023-01-17T02:09:08.540Z,95245.50
2023-01-17T02:11:39.774Z,95240.63
2023-01-17T02:14:07.831Z,95231.50
2023-01-17T02:16:49.402Z,95245.34
2023-01-17T02:19:41.699Z,95248.50
2023-01-17T02:22:34.056Z,95250.59
2023-01-17T02:25:15.796Z,95246.22
2023-01-17T02:28:00.271Z,95255.94
2023-01-17T02:30:38.376Z,95254.34
2023-01-17T02:33:25.771Z,95260.44
2023-01-17T02:36:04.365Z,95259.59
2023-01-17T02:38:41.324Z,95262.56
2023-01-17T02:41:14.677Z,95248.25
2023-01-17T02:43:43.065Z,95254.94
2023-01-17T02:46:13.238Z,95254.28
2023-01-17T02:48:44.207Z,95259.25
2023-01-17T02:51:34.739Z,95256.81
2023-01-17T02:54:17.678Z,95257.66
2023-01-17T02:56:58.839Z,95254.41
2023-01-17T02:59:38.082Z,95261.13
2023-01-17T03:02:18.588Z,95259.25
2023-01-17T03:04:52.492Z,95249.13
2023-01-17T03:07:26.082Z,95256.81
2023-01-17T03:10:00.672Z,95260.38
2023-01-17T03:12:29.910Z,95265.00
2023-01-17T03:14:58.361Z,95260.09
2023-01-17T03:17:33.210Z,95267.44
2023-01-17T03:20:01.266Z,95262.59
2023-01-17T03:22:29.458Z,95277.81
2023-01-17T03:24:57.628Z,95275.22
2023-01-17T03:27:25.645Z,95290.50
2023-01-17T03:29:53.535Z,95276.41
2023-01-17T03:32:21.470Z,95291.16
2023-01-17T03:34:50.784Z,95302.34
2023-01-17T03:37:19.060Z,95290.50
2023-01-17T03:39:47.236Z,95306.09
2023-01-17T03:42:15.471Z,95300.13
2023-01-17T03:44:43.645Z,95302.84
2023-01-17T03:47:12.436Z,95298.16
2023-01-17T03:49:40.629Z,95312.97
2023-01-17T03:52:10.340Z,95301.16
2023-01-17T03:54:38.378Z,95296.50
2023-01-17T03:57:06.778Z,95312.50
2023-01-17T03:59:34.975Z,95310.00
2023-01-17T04:02:03.903Z,95306.06
2023-01-17T04:04:32.205Z,95314.47
2023-01-17T04:07:00.257Z,95305.56
2023-01-17T04:09:34.188Z,95307.38
2023-01-17T04:12:01.900Z,95312.69
2023-01-17T04:14:30.578Z,95308.78
2023-01-17T04:17:01.658Z,95311.44
2023-01-17T04:19:30.311Z,95307.56
2023-01-17T04:21:58.625Z,95315.94
2023-01-17T04:24:27.218Z,95313.00
2023-01-17T04:26:57.122Z,95312.75
2023-01-17T04:29:26.475Z,95309.66
2023-01-17T04:31:54.853Z,95306.34
2023-01-17T04:34:23.090Z,95320.16
2023-01-17T04:36:51.648Z,95321.09
2023-01-17T04:39:19.865Z,95323.72
2023-01-17T04:41:47.986Z,95310.78
2023-01-17T04:44:18.653Z,95321.88
2023-01-17T04:46:46.816Z,95325.38
2023-01-17T04:49:15.108Z,95327.84
2023-01-17T04:51:43.563Z,95328.22
2023-01-17T04:54:11.689Z,95324.97
2023-01-17T04:56:40.060Z,95337.22
2023-01-17T04:59:10.029Z,95341.72
2023-01-17T05:01:40.700Z,95346.28
2023-01-17T05:04:09.257Z,95341.19
2023-01-17T05:06:38.398Z,95332.06
2023-01-17T05:09:06.913Z,95344.31
2023-01-17T05:11:35.287Z,95355.25
2023-01-17T05:14:04.364Z,95357.03
2023-01-17T05:16:33.013Z,95359.41
2023-01-17T05:19:02.680Z,95356.16
2023-01-17T05:21:31.724Z,95348.09
2023-01-17T05:24:00.007Z,95352.22
2023-01-17T05:26:28.028Z,95362.09
2023-01-17T05:28:57.556Z,95348.94
2023-01-17T05:31:25.672Z,95339.91
2023-01-17T05:33:53.912Z,95356.59
2023-01-17T05:36:23.433Z,95363.50
2023-01-17T05:38:52.078Z,95364.22
2023-01-17T05:41:20.369Z,95364.94
2023-01-17T05:43:48.418Z,95365.69
2023-01-17T05:46:18.168Z,95353.53
2023-01-17T05:48:46.396Z,95366.91
2023-01-17T05:51:14.782Z,95364.25
2023-01-17T05:53:44.492Z,95365.94
2023-01-17T05:56:12.591Z,95376.81
2023-01-17T05:58:40.559Z,95375.09
2023-01-17T06:01:08.594Z,95376.63
2023-01-17T06:03:36.972Z,95364.56
2023-01-17T06:06:05.293Z,95376.00
2023-01-17T06:08:34.805Z,95379.50
2023-01-17T06:11:04.336Z,95369.59
2023-01-17T06:13:32.697Z,95380.59
2023-01-17T06:16:04.481Z,95384.81
2023-01-17T06:18:33.556Z,95384.81
2023-01-17T06:21:01.849Z,95384.91
2023-01-17T06:23:29.846Z,95385.22
2023-01-17T06:25:58.025Z,95379.81
2023-01-17T06:28:27.764Z,95370.69
2023-01-17T06:30:56.053Z,95396.59
2023-01-17T06:33:25.879Z,95400.63
2023-01-17T06:35:54.736Z,95387.84
2023-01-17T06:38:23.175Z,95394.44
2023-01-17T06:40:53.366Z,95378.63
2023-01-17T06:43:21.907Z,95403.41
2023-01-17T06:45:51.750Z,95395.97
2023-01-17T06:48:20.413Z,95394.25
2023-01-17T06:50:50.630Z,95398.81
2023-01-17T06:53:19.281Z,95398.19
2023-01-17T06:55:48.822Z,95400.31
2023-01-17T06:58:17.475Z,95378.97
2023-01-17T07:00:45.825Z,95397.59
2023-01-17T07:03:22.502Z,95402.97
2023-01-17T07:05:51.234Z,95417.38
2023-01-17T07:08:20.657Z,95417.63
2023-01-17T07:10:51.099Z,95409.50
2023-01-17T07:13:19.803Z,95422.44
2023-01-17T07:15:49.544Z,95413.88
2023-01-17T07:18:23.501Z,95418.50
2023-01-17T07:20:52.246Z,95417.22
2023-01-17T07:23:21.345Z,95410.53
2023-01-17T07:25:53.535Z,95417.09
2023-01-17T07:28:21.752Z,95418.16
2023-01-17T07:30:50.112Z,95410.72
2023-01-17T07:33:20.657Z,95414.41
2023-01-17T07:35:49.809Z,95406.34
2023-01-17T07:38:20.300Z,95414.94
2023-01-17T07:40:49.624Z,95420.97
2023-01-17T07:43:18.082Z,95415.09
2023-01-17T07:45:49.754Z,95399.66
2023-01-17T07:48:21.503Z,95417.38
2023-01-17T07:50:54.620Z,95405.09
2023-01-17T07:53:25.515Z,95405.06
2023-01-17T07:55:54.240Z,95411.75
2023-01-17T07:58:23.036Z,95403.44
2023-01-17T08:00:51.497Z,95403.44
2023-01-17T08:03:21.215Z,95395.09
2023-01-17T08:05:58.075Z,95399.25
2023-01-17T08:08:26.907Z,95403.41
2023-01-17T08:10:55.518Z,95389.22
2023-01-17T08:13:23.879Z,95391.59
2023-01-17T08:15:55.294Z,95371.59
2023-01-17T08:18:24.841Z,95380.28
2023-01-17T08:20:53.211Z,95386.94
2023-01-17T08:23:21.800Z,95379.50
2023-01-17T08:25:50.091Z,95398.56
2023-01-17T08:28:19.923Z,95388.13
2023-01-17T08:30:48.475Z,95376.63
2023-01-17T08:33:16.751Z,95379.19
2023-01-17T08:35:54.159Z,95364.19
2023-01-17T08:38:24.061Z,95359.63
2023-01-17T08:40:52.379Z,95375.84
2023-01-17T08:43:20.556Z,95377.97
2023-01-17T08:45:51.557Z,95379.22
2023-01-17T08:48:19.639Z,95389.72
2023-01-17T08:50:48.120Z,95373.78
2023-01-17T08:53:18.145Z,95382.91
2023-01-17T08:55:46.518Z,95376.00
2023-01-17T08:58:15.211Z,95380.06
2023-01-17T09:00:43.879Z,95380.06
2023-01-17T09:03:14.571Z,95378.44
2023-01-17T09:05:43.393Z,95387.06
2023-01-17T09:08:11.608Z,95381.28
2023-01-17T09:10:41.388Z,95385.19
2023-01-17T09:13:09.700Z,95389.00
2023-01-17T09:15:38.098Z,95386.13
2023-01-17T09:18:06.407Z,95393.38
2023-01-17T09:20:34.457Z,95388.69
2023-01-17T09:23:04.158Z,95377.28
2023-01-17T09:25:32.138Z,95381.88
2023-01-17T09:28:01.602Z,95378.25
2023-01-17T09:30:30.113Z,95362.53
2023-01-17T09:32:58.318Z,95369.97
2023-01-17T09:35:27.001Z,95379.41
2023-01-17T09:37:57.203Z,95390.63
2023-01-17T09:40:26.756Z,95373.50
2023-01-17T09:43:01.669Z,95367.81
2023-01-17T09:45:33.775Z,95371.44
2023-01-17T09:48:11.423Z,95375.03
2023-01-17T09:50:45.510Z,95374.09
2023-01-17T09:53:17.193Z,95374.94
2023-01-17T09:55:54.908Z,95380.72
2023-01-17T09:58:33.713Z,95386.50
2023-01-17T10:01:12.465Z,95389.56
2023-01-17T10:03:47.653Z,95380.94
2023-01-17T10:06:30.590Z,95365.00
2023-01-17T10:09:35.270Z,95371.59
2023-01-17T10:12:18.854Z,95366.84
2023-01-17T10:15:03.399Z,95369.53
2023-01-17T10:17:45.159Z,95362.50
2023-01-17T10:20:44.633Z,95355.72
2023-01-17T10:23:30.647Z,95347.38
2023-01-17T10:26:02.622Z,95352.94
2023-01-17T10:28:36.627Z,95351.28
2023-01-17T10:31:07.627Z,95352.44
2023-01-17T10:33:46.050Z,95356.25
2023-01-17T10:36:20.817Z,95346.72
2023-01-17T10:38:52.684Z,95341.31
2023-01-17T10:41:28.034Z,95321.13
2023-01-17T10:44:06.881Z,95314.91
2023-01-17T10:46:40.700Z,95323.78
2023-01-17T10:49:18.024Z,95322.94
2023-01-17T10:52:13.230Z,95312.94
2023-01-17T10:55:21.748Z,95310.84
2023-01-17T10:57:51.644Z,95296.41
2023-01-17T11:00:44.717Z,95306.81
2023-01-17T11:03:16.772Z,95309.44
2023-01-17T11:05:46.574Z,95298.78
2023-01-17T11:08:17.751Z,95285.44
2023-01-17T11:10:48.631Z,95301.19
2023-01-17T11:13:37.000Z,95295.78
2023-01-17T11:16:08.628Z,95283.19
2023-01-17T11:18:40.225Z,95279.28
2023-01-17T11:21:15.552Z,95285.69
2023-01-17T11:23:46.093Z,95284.72
2023-01-17T11:26:24.713Z,95284.09
2023-01-17T11:28:53.757Z,95279.16
2023-01-17T11:31:27.660Z,95271.44
2023-01-17T11:34:16.590Z,95258.19
2023-01-17T11:36:48.015Z,95253.38
2023-01-17T11:39:30.157Z,95243.06
2023-01-17T11:41:58.288Z,95243.81
2023-01-17T11:44:28.623Z,95231.19
2023-01-17T11:47:17.166Z,95242.25
2023-01-17T11:49:47.394Z,95238.09
2023-01-17T11:52:26.523Z,95243.78
2023-01-17T11:54:56.382Z,95236.63
2023-01-17T11:57:28.119Z,95233.34
2023-01-17T12:00:05.486Z,95233.09
2023-01-17T12:02:55.271Z,95226.28
2023-01-17T12:05:51.477Z,95225.09
2023-01-17T12:08:34.098Z,95234.06
2023-01-17T12:11:11.291Z,95222.75
2023-01-17T12:14:02.674Z,95220.25
2023-01-17T12:16:46.400Z,95223.06
2023-01-17T12:19:33.527Z,95216.44
2023-01-17T12:22:19.842Z,95216.41
2023-01-17T12:25:04.905Z,95227.50
2023-01-17T12:27:42.763Z,95226.19
2023-01-17T12:30:38.814Z,95220.44
2023-01-17T12:33:22.754Z,95215.75
2023-01-17T12:35:55.406Z,95205.13
2023-01-17T12:38:33.504Z,95205.00
2023-01-17T12:41:11.018Z,95209.81
2023-01-17T12:43:42.591Z,95206.22
2023-01-17T12:46:21.522Z,95186.41
2023-01-17T12:48:55.730Z,95194.25
2023-01-17T12:51:29.493Z,95183.56
2023-01-17T12:54:03.367Z,95188.84
2023-01-17T12:56:37.763Z,95165.88
2023-01-17T12:59:17.076Z,95167.09
2023-01-17T13:01:58.122Z,95167.91
2023-01-17T13:04:31.757Z,95176.88
2023-01-17T13:07:11.499Z,95166.97
2023-01-17T13:09:47.409Z,95176.00
2023-01-17T13:12:21.088Z,95176.13
2023-01-17T13:14:49.768Z,95175.00
2023-01-17T13:17:32.933Z,95186.53
2023-01-17T13:20:08.223Z,95173.63
2023-01-17T13:22:40.052Z,95175.63
2023-01-17T13:25:23.735Z,95168.59
2023-01-17T13:28:04.812Z,95165.47
2023-01-17T13:31:17.510Z,95170.97
2023-01-17T13:34:06.963Z,95165.75
2023-01-17T13:36:58.456Z,95147.03
2023-01-17T13:39:41.188Z,95151.94
2023-01-17T13:42:17.555Z,95153.78
2023-01-17T13:44:48.077Z,95144.03
2023-01-17T13:47:38.982Z,95152.56
2023-01-17T13:50:24.757Z,95153.72
2023-01-17T13:52:58.232Z,95142.97
2023-01-17T13:55:47.096Z,95139.66
2023-01-17T13:58:57.084Z,95133.88
2023-01-17T14:01:53.259Z,95126.47
2023-01-17T14:04:23.258Z,95117.81
2023-01-17T14:07:01.424Z,95115.75
2023-01-17T14:09:39.183Z,95111.50
2023-01-17T14:12:25.458Z,95125.25
2023-01-17T14:14:56.922Z,95113.28
2023-01-17T14:17:59.661Z,95109.75
2023-01-17T14:20:50.745Z,95095.50
2023-01-17T14:23:50.566Z,95095.25
2023-01-17T14:26:38.670Z,95096.13
2023-01-17T14:29:44.399Z,95085.84
2023-01-17T14:32:14.507Z,95088.28
2023-01-17T14:34:45.706Z,95084.94
2023-01-17T14:37:28.018Z,95071.78
2023-01-17T14:39:58.243Z,95066.75
2023-01-17T14:42:30.475Z,95074.19
2023-01-17T14:45:04.135Z,95075.06
2023-01-17T14:47:35.922Z,95069.44
2023-01-17T14:50:25.513Z,95060.53
2023-01-17T14:53:19.997Z,95065.03
2023-01-17T14:55:52.811Z,95052.91
2023-01-17T14:58:22.597Z,95061.91
2023-01-17T15:00:53.227Z,95064.72
2023-01-17T15:03:22.593Z,95063.34
2023-01-17T15:05:55.304Z,95063.47
2023-01-17T15:08:36.672Z,95060.31
2023-01-17T15:11:07.018Z,95061.75
2023-01-17T15:13:44.728Z,95048.25
2023-01-17T15:16:23.184Z,95052.50
2023-01-17T15:18:53.857Z,95047.69
2023-01-17T15:21:28.186Z,95053.47
2023-01-17T15:23:59.635Z,95048.09
2023-01-17T15:26:29.854Z,95057.69
2023-01-17T15:29:07.156Z,95043.56
2023-01-17T15:31:43.899Z,95053.63
2023-01-17T15:34:24.787Z,95058.66
2023-01-17T15:36:57.374Z,95046.41
2023-01-17T15:39:30.292Z,95044.22
2023-01-17T15:42:00.182Z,95048.59
2023-01-17T15:44:47.458Z,95052.09
2023-01-17T15:47:29.958Z,95044.59
2023-01-17T15:49:58.871Z,95051.81
2023-01-17T15:52:33.622Z,95048.41
2023-01-17T15:55:37.958Z,95050.81
2023-01-17T15:58:23.044Z,95048.78
2023-01-17T16:00:52.153Z,95046.41
2023-01-17T16:03:24.675Z,95054.94
2023-01-17T16:05:54.290Z,95058.69
2023-01-17T16:08:32.476Z,95052.78
2023-01-17T16:11:03.221Z,95042.34
2023-01-17T16:13:33.029Z,95053.38
2023-01-17T16:16:12.083Z,95050.34
2023-01-17T16:18:41.176Z,95050.91
2023-01-17T16:21:19.170Z,95043.91
2023-01-17T16:23:50.531Z,95040.81
2023-01-17T16:26:20.339Z,95036.63
2023-01-17T16:28:48.981Z,95033.78
2023-01-17T16:31:18.038Z,95042.75
2023-01-17T16:33:47.318Z,95050.47
2023-01-17T16:36:18.228Z,95057.06
2023-01-17T16:38:50.901Z,95065.09
2023-01-17T16:41:21.263Z,95076.06
2023-01-17T16:43:59.272Z,95070.94
2023-01-17T16:46:27.689Z,95067.97
2023-01-17T16:48:56.316Z,95071.38
2023-01-17T16:51:24.440Z,95075.88
2023-01-17T16:53:52.878Z,95077.53
2023-01-17T16:56:22.531Z,95076.44
2023-01-17T16:58:52.837Z,95079.22
2023-01-17T17:01:22.924Z,95077.56
2023-01-17T17:03:51.355Z,95074.16
2023-01-17T17:06:19.944Z,95073.41
2023-01-17T17:08:57.608Z,95065.09
2023-01-17T17:11:27.958Z,95071.81
2023-01-17T17:13:56.206Z,95064.28
2023-01-17T17:16:29.956Z,95058.56
2023-01-17T17:19:00.370Z,95065.09
2023-01-17T17:21:30.674Z,95068.47
2023-01-17T17:24:01.696Z,95069.34
2023-01-17T17:26:35.231Z,95057.94
2023-01-17T17:29:05.292Z,95060.47
2023-01-17T17:31:34.135Z,95067.31
2023-01-17T17:34:03.591Z,95074.31
2023-01-17T17:36:32.824Z,95056.81
2023-01-17T17:39:07.323Z,95073.66
2023-01-17T17:41:42.190Z,95075.00
2023-01-17T17:44:10.777Z,95071.69
2023-01-17T17:46:44.700Z,95072.81
2023-01-17T17:49:17.808Z,95079.69
2023-01-17T17:51:46.922Z,95088.00
2023-01-17T17:54:17.896Z,95086.69
2023-01-17T17:56:48.559Z,95090.28
2023-01-17T17:59:19.866Z,95091.34
2023-01-17T18:01:49.495Z,95078.97
2023-01-17T18:04:19.654Z,95071.56
2023-01-17T18:06:48.041Z,95074.28
2023-01-17T18:09:17.551Z,95086.44
2023-01-17T18:11:48.387Z,95092.28
2023-01-17T18:14:21.053Z,95080.25
2023-01-17T18:16:51.179Z,95084.72
2023-01-17T18:19:21.964Z,95080.69
2023-01-17T18:21:52.213Z,95077.53
2023-01-17T18:24:23.737Z,95071.88
2023-01-17T18:26:56.411Z,95087.16
2023-01-17T18:29:25.701Z,95067.06
2023-01-17T18:31:55.009Z,95078.72
2023-01-17T18:34:27.129Z,95087.34
2023-01-17T18:36:55.676Z,95100.81
2023-01-17T18:39:25.880Z,95096.31
2023-01-17T18:41:56.669Z,95101.00
2023-01-17T18:44:25.451Z,95095.34
2023-01-17T18:46:55.596Z,95093.91
2023-01-17T18:49:23.811Z,95099.09
2023-01-17T18:51:53.581Z,95095.06
2023-01-17T18:54:22.564Z,95097.66
2023-01-17T18:56:51.196Z,95093.56
2023-01-17T18:59:21.534Z,95100.13
2023-01-17T19:01:49.838Z,95088.25
2023-01-17T19:04:20.091Z,95084.00
2023-01-17T19:06:50.547Z,95083.63
2023-01-17T19:09:26.088Z,95070.91
2023-01-17T19:11:54.882Z,95086.69
2023-01-17T19:14:25.563Z,95086.88
2023-01-17T19:16:53.686Z,95090.81
2023-01-17T19:19:21.958Z,95099.19
2023-01-17T19:21:51.870Z,95101.06
2023-01-17T19:24:20.252Z,95111.88
2023-01-17T19:26:51.465Z,95107.94
2023-01-17T19:29:20.090Z,95115.91
2023-01-17T19:31:52.369Z,95120.91
2023-01-17T19:34:20.910Z,95117.56
2023-01-17T19:36:50.441Z,95123.94
2023-01-17T19:39:23.256Z,95108.31
2023-01-17T19:41:53.350Z,95122.00
2023-01-17T19:44:22.148Z,95131.25
2023-01-17T19:46:52.381Z,95121.25
2023-01-17T19:49:24.766Z,95121.28
2023-01-17T19:51:53.656Z,95099.09
2023-01-17T19:54:23.383Z,95112.34
2023-01-17T19:56:53.924Z,95119.88
2023-01-17T19:59:24.847Z,95108.31
2023-01-17T20:01:56.816Z,95124.31
2023-01-17T20:04:25.266Z,95123.44
2023-01-17T20:06:56.599Z,95105.69
2023-01-17T20:09:25.201Z,95105.25
2023-01-17T20:11:53.777Z,95116.94
2023-01-17T20:14:21.965Z,95094.47
2023-01-17T20:16:51.760Z,95120.09
2023-01-17T20:19:21.826Z,95116.00
2023-01-17T20:21:50.720Z,95111.75
2023-01-17T20:24:19.209Z,95118.63
2023-01-17T20:26:47.810Z,95122.72
2023-01-17T20:29:19.576Z,95117.56
2023-01-17T20:31:48.313Z,95117.34
2023-01-17T20:34:18.794Z,95124.81
2023-01-17T20:36:48.896Z,95121.50
2023-01-17T20:39:17.375Z,95124.72
2023-01-17T20:41:46.348Z,95122.19
2023-01-17T20:44:16.532Z,95123.94
2023-01-17T20:46:47.783Z,95122.88
2023-01-17T20:49:19.247Z,95115.84
2023-01-17T20:51:50.017Z,95115.88
2023-01-17T20:54:19.922Z,95120.44
2023-01-17T20:56:48.762Z,95121.97
2023-01-17T20:59:18.682Z,95121.47
2023-01-17T21:01:47.256Z,95116.13
2023-01-17T21:04:16.739Z,95125.50
2023-01-17T21:06:46.264Z,95123.66
2023-01-17T21:09:17.304Z,95122.06
2023-01-17T21:11:45.747Z,95121.41
2023-01-17T21:14:14.184Z,95115.47
2023-01-17T21:16:42.455Z,95111.94
2023-01-17T21:19:12.158Z,95114.50
2023-01-17T21:21:40.540Z,95113.75
2023-01-17T21:24:08.866Z,95113.69
2023-01-17T21:26:39.942Z,95110.19
2023-01-17T21:29:08.050Z,95110.06
2023-01-17T21:31:36.912Z,95120.97
2023-01-17T21:34:07.143Z,95115.72
2023-01-17T21:36:36.936Z,95124.78
2023-01-17T21:39:07.493Z,95122.22
2023-01-17T21:41:37.375Z,95120.06
2023-01-17T21:44:10.146Z,95119.94
2023-01-17T21:46:39.974Z,95114.38
2023-01-17T21:49:10.544Z,95112.34
2023-01-17T21:51:59.890Z,95104.84
2023-01-17T21:54:46.686Z,95112.09
2023-01-17T21:57:33.583Z,95117.78
2023-01-17T22:00:03.316Z,95118.84
2023-01-17T22:02:31.517Z,95117.91
2023-01-17T22:04:59.734Z,95124.47
2023-01-17T22:07:29.064Z,95121.91
2023-01-17T22:09:57.642Z,95126.75
2023-01-17T22:12:25.707Z,95127.41
2023-01-17T22:14:53.769Z,95126.75
2023-01-17T22:17:23.221Z,95124.63
2023-01-17T22:19:51.248Z,95122.75
2023-01-17T22:22:19.645Z,95121.97
2023-01-17T22:24:47.545Z,95124.34
2023-01-17T22:27:15.749Z,95115.84
2023-01-17T22:29:44.044Z,95127.50
2023-01-17T22:32:12.073Z,95130.47
2023-01-17T22:34:41.537Z,95127.16
2023-01-17T22:37:12.418Z,95132.34
2023-01-17T22:39:40.512Z,95126.41
2023-01-17T22:42:08.911Z,95125.53
2023-01-17T22:44:36.932Z,95125.84
2023-01-17T22:47:05.744Z,95124.34
2023-01-17T22:49:33.820Z,95121.75
2023-01-17T22:52:03.338Z,95112.09
2023-01-17T22:54:31.494Z,95130.03
2023-01-17T22:57:00.070Z,95133.56
2023-01-17T22:59:28.383Z,95117.38
2023-01-17T23:01:56.426Z,95114.72
2023-01-17T23:04:25.973Z,95119.09
2023-01-17T23:06:54.445Z,95115.75
2023-01-17T23:09:23.781Z,95113.81
2023-01-17T23:11:54.315Z,95117.75
2023-01-17T23:14:24.292Z,95125.88
2023-01-17T23:17:11.695Z,95122.44
2023-01-17T23:19:41.854Z,95115.25
2023-01-17T23:22:19.384Z,95121.16
2023-01-17T23:24:55.187Z,95118.25
2023-01-17T23:27:45.014Z,95115.25
2023-01-17T23:30:15.845Z,95122.47
2023-01-17T23:32:46.463Z,95113.44
2023-01-17T23:35:15.145Z,95120.31
2023-01-17T23:38:01.172Z,95124.72
2023-01-17T23:40:34.352Z,95113.00
2023-01-17T23:43:19.948Z,95109.63
2023-01-17T23:45:48.397Z,95116.59
2023-01-17T23:48:16.431Z,95108.75
2023-01-17T23:50:46.342Z,95103.78
2023-01-17T23:53:22.430Z,95106.66
2023-01-17T23:55:54.066Z,95108.66
2023-01-17T23:58:23.932Z,95092.88
